Montville, Ohio
Current Conditions -  °F | °C
As of 9:08 AM on Thursday 27 Nov 2014 (Local Time) from KHZY Reporting Station
Light Snow Light Snow  
Wind Chill: 32°   Ceiling: 3800
Heat Index: 32°   Visibility: 1.7mi
Dew Point: 29°   Wind: 3mph
Humidity: 88%   Direction: 290°WNW
Pressure: 30.07"   Gusts: NA
Location:  41.61°N, 81.05°W
Report Text: KHZY 271408Z AUTO 29003KT 1 3/4SM -SN BR SCT029 OVC038 00/M02 A3007 RMK AO2 P0000 T00001017
Loading
Personal Weather Stations






























Interactive Weather Map New forecast layout! Learn more

10-Day Weather Forecast

Advertisements
Track Severe Weather on mobile